sensor_id;sensor_type;location;lat;lon;timestamp;pressure;altitude;pressure_sealevel;temperature;humidity
8253;BME280;61313;48.396;10.008;2024-03-02T00:00:14;95120.75;;;7.31;78.76
8253;BME280;61313;48.396;10.008;2024-03-02T00:02:46;95126.53;;;7.37;77.86
8253;BME280;61313;48.396;10.008;2024-03-02T00:05:13;95125.75;;;7.18;78.75
8253;BME280;61313;48.396;10.008;2024-03-02T00:07:43;95125.38;;;7.26;78.80
8253;BME280;61313;48.396;10.008;2024-03-02T00:10:11;95127.13;;;7.42;78.37
8253;BME280;61313;48.396;10.008;2024-03-02T00:12:39;95131.56;;;7.40;78.38
8253;BME280;61313;48.396;10.008;2024-03-02T00:18:04;95129.78;;;7.58;78.10
8253;BME280;61313;48.396;10.008;2024-03-02T00:20:30;95128.31;;;7.53;78.16
8253;BME280;61313;48.396;10.008;2024-03-02T00:23:05;95120.66;;;7.50;78.96
8253;BME280;61313;48.396;10.008;2024-03-02T00:25:39;95118.75;;;7.36;78.62
8253;BME280;61313;48.396;10.008;2024-03-02T00:28:11;95117.81;;;7.37;78.44
8253;BME280;61313;48.396;10.008;2024-03-02T00:33:26;95123.78;;;7.06;79.31
8253;BME280;61313;48.396;10.008;2024-03-02T00:35:53;95119.13;;;6.95;79.59
8253;BME280;61313;48.396;10.008;2024-03-02T00:38:18;95125.06;;;6.62;80.57
8253;BME280;61313;48.396;10.008;2024-03-02T00:40:45;95122.53;;;6.61;81.27
8253;BME280;61313;48.396;10.008;2024-03-02T00:43:41;95120.38;;;6.51;80.29
8253;BME280;61313;48.396;10.008;2024-03-02T00:46:06;95121.75;;;6.41;80.82
8253;BME280;61313;48.396;10.008;2024-03-02T00:48:32;95124.88;;;6.11;82.25
8253;BME280;61313;48.396;10.008;2024-03-02T00:51:01;95120.94;;;6.22;82.22
8253;BME280;61313;48.396;10.008;2024-03-02T00:53:29;95121.56;;;6.27;82.44
8253;BME280;61313;48.396;10.008;2024-03-02T00:55:55;95118.00;;;6.10;83.35
8253;BME280;61313;48.396;10.008;2024-03-02T00:58:21;95123.88;;;5.95;83.13
8253;BME280;61313;48.396;10.008;2024-03-02T01:00:46;95125.28;;;5.83;83.69
8253;BME280;61313;48.396;10.008;2024-03-02T01:03:12;95119.38;;;5.80;83.60
8253;BME280;61313;48.396;10.008;2024-03-02T01:05:44;95122.44;;;5.69;83.52
8253;BME280;61313;48.396;10.008;2024-03-02T01:08:10;95123.41;;;6.06;82.35
8253;BME280;61313;48.396;10.008;2024-03-02T01:10:35;95123.03;;;6.13;81.41
8253;BME280;61313;48.396;10.008;2024-03-02T01:13:01;95117.06;;;6.11;81.33
8253;BME280;61313;48.396;10.008;2024-03-02T01:15:26;95112.53;;;5.98;82.21
8253;BME280;61313;48.396;10.008;2024-03-02T01:17:51;95110.94;;;6.12;81.25
8253;BME280;61313;48.396;10.008;2024-03-02T01:20:17;95128.19;;;6.15;81.94
8253;BME280;61313;48.396;10.008;2024-03-02T01:22:42;95127.97;;;6.56;80.13
8253;BME280;61313;48.396;10.008;2024-03-02T01:25:08;95123.72;;;6.36;80.19
8253;BME280;61313;48.396;10.008;2024-03-02T01:27:34;95129.28;;;6.47;79.77
8253;BME280;61313;48.396;10.008;2024-03-02T01:29:59;95128.13;;;6.70;79.00
8253;BME280;61313;48.396;10.008;2024-03-02T01:32:25;95133.91;;;6.77;78.54
8253;BME280;61313;48.396;10.008;2024-03-02T01:34:50;95129.75;;;7.08;77.42
8253;BME280;61313;48.396;10.008;2024-03-02T01:37:16;95126.63;;;7.01;77.39
8253;BME280;61313;48.396;10.008;2024-03-02T01:39:41;95129.06;;;6.87;77.63
8253;BME280;61313;48.396;10.008;2024-03-02T01:42:06;95139.72;;;6.82;78.41
8253;BME280;61313;48.396;10.008;2024-03-02T01:44:32;95131.84;;;6.84;78.06
8253;BME280;61313;48.396;10.008;2024-03-02T01:46:57;95133.50;;;6.85;77.60
8253;BME280;61313;48.396;10.008;2024-03-02T01:49:23;95136.81;;;6.88;77.94
8253;BME280;61313;48.396;10.008;2024-03-02T01:51:48;95133.66;;;6.99;77.73
8253;BME280;61313;48.396;10.008;2024-03-02T01:54:13;95135.13;;;7.05;77.60
8253;BME280;61313;48.396;10.008;2024-03-02T01:56:39;95130.97;;;7.18;76.59
8253;BME280;61313;48.396;10.008;2024-03-02T01:59:05;95134.59;;;6.98;77.37
8253;BME280;61313;48.396;10.008;2024-03-02T02:01:30;95135.03;;;7.06;77.41
8253;BME280;61313;48.396;10.008;2024-03-02T02:03:56;95129.00;;;7.06;77.36
8253;BME280;61313;48.396;10.008;2024-03-02T02:06:21;95130.63;;;6.73;78.57
8253;BME280;61313;48.396;10.008;2024-03-02T02:08:47;95121.19;;;6.71;78.64
8253;BME280;61313;48.396;10.008;2024-03-02T02:11:16;95129.19;;;6.49;79.24
8253;BME280;61313;48.396;10.008;2024-03-02T02:13:42;95125.53;;;6.53;79.21
8253;BME280;61313;48.396;10.008;2024-03-02T02:16:08;95131.50;;;6.55;79.19
8253;BME280;61313;48.396;10.008;2024-03-02T02:18:34;95122.25;;;6.67;79.29
8253;BME280;61313;48.396;10.008;2024-03-02T02:21:00;95117.25;;;6.62;78.69
8253;BME280;61313;48.396;10.008;2024-03-02T02:23:25;95120.91;;;6.58;79.71
8253;BME280;61313;48.396;10.008;2024-03-02T02:25:51;95121.41;;;6.66;79.02
8253;BME280;61313;48.396;10.008;2024-03-02T02:28:16;95126.94;;;6.95;78.13
8253;BME280;61313;48.396;10.008;2024-03-02T02:30:42;95121.94;;;7.08;77.82
8253;BME280;61313;48.396;10.008;2024-03-02T02:33:08;95126.91;;;7.12;77.66
8253;BME280;61313;48.396;10.008;2024-03-02T02:35:34;95120.31;;;7.05;77.70
8253;BME280;61313;48.396;10.008;2024-03-02T02:38:00;95121.03;;;7.09;77.47
8253;BME280;61313;48.396;10.008;2024-03-02T02:40:26;95117.66;;;7.07;77.71
8253;BME280;61313;48.396;10.008;2024-03-02T02:42:52;95116.13;;;7.03;78.09
8253;BME280;61313;48.396;10.008;2024-03-02T02:45:17;95107.16;;;6.73;79.21
8253;BME280;61313;48.396;10.008;2024-03-02T02:47:44;95109.59;;;6.76;78.13
8253;BME280;61313;48.396;10.008;2024-03-02T02:50:10;95115.25;;;6.50;79.52
8253;BME280;61313;48.396;10.008;2024-03-02T02:52:38;95107.16;;;6.37;80.14
8253;BME280;61313;48.396;10.008;2024-03-02T02:55:06;95109.81;;;6.54;79.23
8253;BME280;61313;48.396;10.008;2024-03-02T02:57:33;95103.84;;;6.52;78.79
8253;BME280;61313;48.396;10.008;2024-03-02T03:00:01;95105.13;;;6.61;79.14
8253;BME280;61313;48.396;10.008;2024-03-02T03:02:30;95110.59;;;6.91;78.10
8253;BME280;61313;48.396;10.008;2024-03-02T03:04:56;95112.72;;;7.00;78.12
8253;BME280;61313;48.396;10.008;2024-03-02T03:07:22;95113.97;;;6.93;77.62
8253;BME280;61313;48.396;10.008;2024-03-02T03:09:48;95109.81;;;6.89;77.92
8253;BME280;61313;48.396;10.008;2024-03-02T03:12:13;95115.34;;;7.00;77.37
8253;BME280;61313;48.396;10.008;2024-03-02T03:14:40;95107.06;;;7.10;77.00
8253;BME280;61313;48.396;10.008;2024-03-02T03:17:06;95113.28;;;6.90;78.27
8253;BME280;61313;48.396;10.008;2024-03-02T03:19:33;95110.06;;;7.02;77.36
8253;BME280;61313;48.396;10.008;2024-03-02T03:21:58;95108.06;;;7.07;77.22
8253;BME280;61313;48.396;10.008;2024-03-02T03:24:24;95117.72;;;7.05;77.10
8253;BME280;61313;48.396;10.008;2024-03-02T03:26:49;95111.56;;;7.06;76.89
8253;BME280;61313;48.396;10.008;2024-03-02T03:29:15;95113.72;;;6.98;77.51
8253;BME280;61313;48.396;10.008;2024-03-02T03:31:40;95108.22;;;6.87;77.69
8253;BME280;61313;48.396;10.008;2024-03-02T03:34:05;95108.66;;;6.60;78.49
8253;BME280;61313;48.396;10.008;2024-03-02T03:36:31;95114.59;;;6.27;80.21
8253;BME280;61313;48.396;10.008;2024-03-02T03:38:56;95107.00;;;6.40;79.84
8253;BME280;61313;48.396;10.008;2024-03-02T03:41:22;95112.28;;;6.02;81.49
8253;BME280;61313;48.396;10.008;2024-03-02T03:43:48;95110.03;;;6.13;81.02
8253;BME280;61313;48.396;10.008;2024-03-02T03:46:13;95113.59;;;6.30;80.09
8253;BME280;61313;48.396;10.008;2024-03-02T03:48:39;95113.16;;;6.03;81.25
8253;BME280;61313;48.396;10.008;2024-03-02T03:51:04;95120.34;;;5.98;81.55
8253;BME280;61313;48.396;10.008;2024-03-02T03:53:29;95117.22;;;6.08;81.71
8253;BME280;61313;48.396;10.008;2024-03-02T03:55:55;95122.34;;;5.91;82.35
8253;BME280;61313;48.396;10.008;2024-03-02T03:58:20;95121.91;;;6.38;80.43
8253;BME280;61313;48.396;10.008;2024-03-02T04:00:46;95118.09;;;6.63;79.37
8253;BME280;61313;48.396;10.008;2024-03-02T04:03:11;95120.78;;;6.78;78.71
8253;BME280;61313;48.396;10.008;2024-03-02T04:05:37;95116.66;;;6.74;78.82
8253;BME280;61313;48.396;10.008;2024-03-02T04:08:03;95118.03;;;6.64;79.75
8253;BME280;61313;48.396;10.008;2024-03-02T04:10:29;95116.88;;;6.70;79.63
8253;BME280;61313;48.396;10.008;2024-03-02T04:12:55;95120.78;;;6.78;79.02
8253;BME280;61313;48.396;10.008;2024-03-02T04:15:21;95120.47;;;6.85;79.31
8253;BME280;61313;48.396;10.008;2024-03-02T04:17:48;95128.47;;;6.82;79.40
8253;BME280;61313;48.396;10.008;2024-03-02T04:20:13;95128.28;;;6.85;78.86
8253;BME280;61313;48.396;10.008;2024-03-02T04:22:39;95123.78;;;6.88;79.27
8253;BME280;61313;48.396;10.008;2024-03-02T04:25:05;95129.69;;;6.92;78.83
8253;BME280;61313;48.396;10.008;2024-03-02T04:27:31;95134.22;;;6.88;79.03
8253;BME280;61313;48.396;10.008;2024-03-02T04:29:59;95137.44;;;6.93;78.73
8253;BME280;61313;48.396;10.008;2024-03-02T04:32:26;95133.06;;;6.94;78.60
8253;BME280;61313;48.396;10.008;2024-03-02T04:34:51;95134.66;;;6.96;78.56
8253;BME280;61313;48.396;10.008;2024-03-02T04:37:17;95136.97;;;6.85;78.99
8253;BME280;61313;48.396;10.008;2024-03-02T04:39:42;95136.59;;;6.93;79.20
8253;BME280;61313;48.396;10.008;2024-03-02T04:42:07;95135.31;;;7.02;78.60
8253;BME280;61313;48.396;10.008;2024-03-02T04:44:33;95130.00;;;7.03;78.12
8253;BME280;61313;48.396;10.008;2024-03-02T04:46:58;95136.28;;;6.99;77.99
8253;BME280;61313;48.396;10.008;2024-03-02T04:49:24;95135.00;;;6.90;78.22
8253;BME280;61313;48.396;10.008;2024-03-02T04:51:49;95141.59;;;6.97;78.91
8253;BME280;61313;48.396;10.008;2024-03-02T04:54:14;95128.69;;;6.94;78.42
8253;BME280;61313;48.396;10.008;2024-03-02T04:56:40;95132.59;;;7.03;77.81
8253;BME280;61313;48.396;10.008;2024-03-02T04:59:10;95136.22;;;7.00;78.25
8253;BME280;61313;48.396;10.008;2024-03-02T05:01:36;95129.84;;;6.71;79.06
8253;BME280;61313;48.396;10.008;2024-03-02T05:04:01;95134.84;;;6.76;79.12
8253;BME280;61313;48.396;10.008;2024-03-02T05:06:27;95139.72;;;6.65;79.30
8253;BME280;61313;48.396;10.008;2024-03-02T05:08:52;95131.63;;;6.88;78.86
8253;BME280;61313;48.396;10.008;2024-03-02T05:11:17;95136.88;;;6.87;78.65
8253;BME280;61313;48.396;10.008;2024-03-02T05:14:01;95137.28;;;6.79;78.81
8253;BME280;61313;48.396;10.008;2024-03-02T05:16:27;95129.69;;;6.74;79.11
8253;BME280;61313;48.396;10.008;2024-03-02T05:18:52;95140.94;;;6.75;79.40
8253;BME280;61313;48.396;10.008;2024-03-02T05:21:18;95140.34;;;6.70;79.05
8253;BME280;61313;48.396;10.008;2024-03-02T05:23:43;95139.09;;;6.77;78.77
8253;BME280;61313;48.396;10.008;2024-03-02T05:26:09;95142.25;;;6.66;79.29
8253;BME280;61313;48.396;10.008;2024-03-02T05:28:38;95149.00;;;6.34;80.12
8253;BME280;61313;48.396;10.008;2024-03-02T05:31:04;95137.34;;;6.60;79.99
8253;BME280;61313;48.396;10.008;2024-03-02T05:33:29;95140.09;;;6.74;78.96
8253;BME280;61313;48.396;10.008;2024-03-02T05:35:56;95140.72;;;6.79;78.18
8253;BME280;61313;48.396;10.008;2024-03-02T05:38:22;95139.66;;;6.84;78.63
8253;BME280;61313;48.396;10.008;2024-03-02T05:40:47;95140.81;;;6.78;77.79
8253;BME280;61313;48.396;10.008;2024-03-02T05:43:13;95149.75;;;6.72;78.57
8253;BME280;61313;48.396;10.008;2024-03-02T05:45:38;95148.09;;;6.71;78.15
8253;BME280;61313;48.396;10.008;2024-03-02T05:48:08;95150.81;;;6.68;78.28
8253;BME280;61313;48.396;10.008;2024-03-02T05:50:34;95147.38;;;6.68;78.39
8253;BME280;61313;48.396;10.008;2024-03-02T05:52:59;95158.59;;;6.70;78.21
8253;BME280;61313;48.396;10.008;2024-03-02T05:55:25;95162.34;;;6.64;78.25
8253;BME280;61313;48.396;10.008;2024-03-02T05:57:50;95160.91;;;6.76;78.19
8253;BME280;61313;48.396;10.008;2024-03-02T06:00:31;95166.72;;;6.81;78.23
8253;BME280;61313;48.396;10.008;2024-03-02T06:02:56;95166.56;;;6.67;78.38
8253;BME280;61313;48.396;10.008;2024-03-02T06:05:22;95171.22;;;6.77;78.08
8253;BME280;61313;48.396;10.008;2024-03-02T06:07:47;95171.78;;;6.67;78.60
8253;BME280;61313;48.396;10.008;2024-03-02T06:10:13;95174.00;;;6.74;77.94
8253;BME280;61313;48.396;10.008;2024-03-02T06:12:39;95164.78;;;6.50;78.90
8253;BME280;61313;48.396;10.008;2024-03-02T06:15:05;95167.47;;;6.29;79.60
8253;BME280;61313;48.396;10.008;2024-03-02T06:17:30;95175.44;;;6.26;79.92
8253;BME280;61313;48.396;10.008;2024-03-02T06:19:56;95168.25;;;6.31;79.87
8253;BME280;61313;48.396;10.008;2024-03-02T06:22:21;95168.91;;;6.54;79.09
8253;BME280;61313;48.396;10.008;2024-03-02T06:24:50;95167.91;;;6.56;79.03
8253;BME280;61313;48.396;10.008;2024-03-02T06:27:15;95173.91;;;6.40;79.65
8253;BME280;61313;48.396;10.008;2024-03-02T06:29:41;95173.34;;;6.52;78.92
8253;BME280;61313;48.396;10.008;2024-03-02T06:32:07;95168.16;;;6.69;78.53
8253;BME280;61313;48.396;10.008;2024-03-02T06:34:32;95170.06;;;6.66;78.82
8253;BME280;61313;48.396;10.008;2024-03-02T06:36:58;95173.34;;;6.33;80.17
8253;BME280;61313;48.396;10.008;2024-03-02T06:39:23;95172.44;;;6.53;79.37
8253;BME280;61313;48.396;10.008;2024-03-02T06:41:48;95174.28;;;6.68;78.31
8253;BME280;61313;48.396;10.008;2024-03-02T06:44:14;95171.06;;;6.63;78.39
8253;BME280;61313;48.396;10.008;2024-03-02T06:46:39;95173.94;;;6.76;78.20
8253;BME280;61313;48.396;10.008;2024-03-02T06:49:05;95175.38;;;6.82;78.08
8253;BME280;61313;48.396;10.008;2024-03-02T06:51:30;95179.00;;;6.79;78.57
8253;BME280;61313;48.396;10.008;2024-03-02T06:53:56;95185.88;;;6.80;78.33
8253;BME280;61313;48.396;10.008;2024-03-02T06:56:21;95182.94;;;6.88;78.11
8253;BME280;61313;48.396;10.008;2024-03-02T06:58:47;95184.94;;;7.00;77.39
8253;BME280;61313;48.396;10.008;2024-03-02T07:01:12;95177.31;;;6.95;77.99
8253;BME280;61313;48.396;10.008;2024-03-02T07:03:38;95181.16;;;7.06;77.56
8253;BME280;61313;48.396;10.008;2024-03-02T07:06:05;95184.88;;;7.02;76.93
8253;BME280;61313;48.396;10.008;2024-03-02T07:08:30;95180.09;;;7.10;77.57
8253;BME280;61313;48.396;10.008;2024-03-02T07:10:56;95184.31;;;7.12;76.45
8253;BME280;61313;48.396;10.008;2024-03-02T07:13:22;95187.16;;;7.08;77.14
8253;BME280;61313;48.396;10.008;2024-03-02T07:15:47;95188.91;;;7.07;77.38
8253;BME280;61313;48.396;10.008;2024-03-02T07:18:25;95189.91;;;7.05;76.85
8253;BME280;61313;48.396;10.008;2024-03-02T07:20:50;95188.91;;;6.90;77.05
8253;BME280;61313;48.396;10.008;2024-03-02T07:23:15;95187.63;;;6.62;78.50
8253;BME280;61313;48.396;10.008;2024-03-02T07:25:41;95182.66;;;6.75;77.72
8253;BME280;61313;48.396;10.008;2024-03-02T07:28:06;95191.59;;;6.88;78.09
8253;BME280;61313;48.396;10.008;2024-03-02T07:30:32;95184.09;;;6.99;77.51
8253;BME280;61313;48.396;10.008;2024-03-02T07:32:59;95185.09;;;6.97;77.43
8253;BME280;61313;48.396;10.008;2024-03-02T07:35:25;95197.03;;;7.01;76.56
8253;BME280;61313;48.396;10.008;2024-03-02T07:37:53;95193.41;;;6.86;77.57
8253;BME280;61313;48.396;10.008;2024-03-02T07:40:20;95189.91;;;7.05;77.24
8253;BME280;61313;48.396;10.008;2024-03-02T07:42:45;95192.81;;;6.98;77.34
8253;BME280;61313;48.396;10.008;2024-03-02T07:45:11;95183.00;;;7.04;77.26
8253;BME280;61313;48.396;10.008;2024-03-02T07:47:36;95180.78;;;7.13;77.14
8253;BME280;61313;48.396;10.008;2024-03-02T07:50:02;95188.19;;;6.69;78.18
8253;BME280;61313;48.396;10.008;2024-03-02T07:52:28;95189.75;;;6.90;78.16
8253;BME280;61313;48.396;10.008;2024-03-02T07:54:54;95184.00;;;7.01;77.93
8253;BME280;61313;48.396;10.008;2024-03-02T07:57:20;95191.75;;;7.03;77.79
8253;BME280;61313;48.396;10.008;2024-03-02T07:59:46;95188.53;;;7.15;77.47
8253;BME280;61313;48.396;10.008;2024-03-02T08:02:12;95191.03;;;6.99;77.82
8253;BME280;61313;48.396;10.008;2024-03-02T08:04:38;95199.84;;;6.79;78.23
8253;BME280;61313;48.396;10.008;2024-03-02T08:07:04;95190.47;;;6.75;78.95
8253;BME280;61313;48.396;10.008;2024-03-02T08:09:29;95186.16;;;7.10;77.19
8253;BME280;61313;48.396;10.008;2024-03-02T08:11:55;95183.78;;;7.23;76.47
8253;BME280;61313;48.396;10.008;2024-03-02T08:14:22;95189.84;;;6.52;79.32
8253;BME280;61313;48.396;10.008;2024-03-02T08:16:47;95189.09;;;6.68;78.99
8253;BME280;61313;48.396;10.008;2024-03-02T08:19:12;95192.19;;;7.11;77.30
8253;BME280;61313;48.396;10.008;2024-03-02T08:21:38;95190.66;;;6.89;77.90
8253;BME280;61313;48.396;10.008;2024-03-02T08:24:04;95197.81;;;6.86;79.25
8253;BME280;61313;48.396;10.008;2024-03-02T08:26:29;95193.50;;;6.85;79.22
8253;BME280;61313;48.396;10.008;2024-03-02T08:28:59;95197.13;;;6.99;77.52
8253;BME280;61313;48.396;10.008;2024-03-02T08:31:27;95194.06;;;7.09;77.98
8253;BME280;61313;48.396;10.008;2024-03-02T08:33:53;95199.75;;;7.17;77.80
8253;BME280;61313;48.396;10.008;2024-03-02T08:36:18;95195.28;;;7.19;76.90
8253;BME280;61313;48.396;10.008;2024-03-02T08:38:45;95198.13;;;7.14;77.40
8253;BME280;61313;48.396;10.008;2024-03-02T08:41:10;95196.28;;;7.16;77.30
8253;BME280;61313;48.396;10.008;2024-03-02T08:43:38;95192.84;;;7.33;76.10
8253;BME280;61313;48.396;10.008;2024-03-02T08:46:05;95191.16;;;7.32;76.13
8253;BME280;61313;48.396;10.008;2024-03-02T08:48:31;95194.50;;;7.34;76.89
8253;BME280;61313;48.396;10.008;2024-03-02T08:50:56;95200.44;;;7.38;76.55
8253;BME280;61313;48.396;10.008;2024-03-02T08:53:22;95193.69;;;7.51;75.93
8253;BME280;61313;48.396;10.008;2024-03-02T08:55:47;95191.38;;;7.28;76.14
8253;BME280;61313;48.396;10.008;2024-03-02T08:58:12;95193.44;;;7.04;77.11
8253;BME280;61313;48.396;10.008;2024-03-02T09:00:38;95199.50;;;7.56;82.63
8253;BME280;61313;48.396;10.008;2024-03-02T09:03:04;95180.38;;;10.61;86.90
8253;BME280;61313;48.396;10.008;2024-03-02T09:05:31;95184.34;;;11.86;75.40
8253;BME280;61313;48.396;10.008;2024-03-02T09:07:56;95186.41;;;9.47;67.64
8253;BME280;61313;48.396;10.008;2024-03-02T09:10:21;95199.84;;;8.64;70.89
8253;BME280;61313;48.396;10.008;2024-03-02T09:12:47;95199.47;;;8.23;72.19
8253;BME280;61313;48.396;10.008;2024-03-02T09:15:13;95195.66;;;7.97;73.45
8253;BME280;61313;48.396;10.008;2024-03-02T09:17:38;95196.44;;;7.81;73.56
8253;BME280;61313;48.396;10.008;2024-03-02T09:20:05;95196.97;;;7.88;72.95
8253;BME280;61313;48.396;10.008;2024-03-02T09:22:30;95202.25;;;7.53;74.81
8253;BME280;61313;48.396;10.008;2024-03-02T09:24:57;95193.22;;;7.43;75.63
8253;BME280;61313;48.396;10.008;2024-03-02T09:27:23;95188.97;;;7.58;76.16
8253;BME280;61313;48.396;10.008;2024-03-02T09:29:48;95194.50;;;7.52;76.31
8253;BME280;61313;48.396;10.008;2024-03-02T09:32:14;95197.22;;;7.83;75.27
8253;BME280;61313;48.396;10.008;2024-03-02T09:34:40;95192.81;;;7.84;75.07
8253;BME280;61313;48.396;10.008;2024-03-02T09:37:06;95194.72;;;7.98;74.35
8253;BME280;61313;48.396;10.008;2024-03-02T09:39:31;95183.59;;;7.94;74.15
8253;BME280;61313;48.396;10.008;2024-03-02T09:41:57;95178.03;;;8.00;74.31
8253;BME280;61313;48.396;10.008;2024-03-02T09:44:23;95178.91;;;8.01;74.86
8253;BME280;61313;48.396;10.008;2024-03-02T09:46:50;95172.69;;;8.35;73.19
8253;BME280;61313;48.396;10.008;2024-03-02T09:49:16;95182.28;;;8.35;72.56
8253;BME280;61313;48.396;10.008;2024-03-02T09:51:47;95171.53;;;8.41;72.53
8253;BME280;61313;48.396;10.008;2024-03-02T09:54:12;95172.28;;;8.43;72.13
8253;BME280;61313;48.396;10.008;2024-03-02T09:56:39;95175.72;;;8.59;71.74
8253;BME280;61313;48.396;10.008;2024-03-02T09:59:04;95172.59;;;8.68;72.11
8253;BME280;61313;48.396;10.008;2024-03-02T10:01:30;95175.91;;;8.40;72.45
8253;BME280;61313;48.396;10.008;2024-03-02T10:03:59;95165.78;;;8.50;72.45
8253;BME280;61313;48.396;10.008;2024-03-02T10:06:26;95169.72;;;8.73;71.22
8253;BME280;61313;48.396;10.008;2024-03-02T10:08:52;95170.81;;;8.37;72.20
8253;BME280;61313;48.396;10.008;2024-03-02T10:11:28;95175.59;;;8.62;72.59
8253;BME280;61313;48.396;10.008;2024-03-02T10:14:07;95172.78;;;8.50;72.29
8253;BME280;61313;48.396;10.008;2024-03-02T10:16:35;95155.13;;;8.69;71.51
8253;BME280;61313;48.396;10.008;2024-03-02T10:19:17;95169.53;;;8.46;73.06
8253;BME280;61313;48.396;10.008;2024-03-02T10:21:47;95160.88;;;8.76;72.41
8253;BME280;61313;48.396;10.008;2024-03-02T10:24:12;95162.00;;;9.02;71.17
8253;BME280;61313;48.396;10.008;2024-03-02T10:26:38;95151.75;;;9.43;70.10
8253;BME280;61313;48.396;10.008;2024-03-02T10:29:04;95159.66;;;8.97;71.41
8253;BME280;61313;48.396;10.008;2024-03-02T10:31:30;95151.25;;;8.76;71.49
8253;BME280;61313;48.396;10.008;2024-03-02T10:33:55;95153.03;;;9.36;69.84
8253;BME280;61313;48.396;10.008;2024-03-02T10:36:21;95158.31;;;8.90;70.67
8253;BME280;61313;48.396;10.008;2024-03-02T10:38:46;95166.53;;;8.84;71.19
8253;BME280;61313;48.396;10.008;2024-03-02T10:41:17;95158.31;;;8.90;71.21
8253;BME280;61313;48.396;10.008;2024-03-02T10:43:43;95144.09;;;9.54;69.01
8253;BME280;61313;48.396;10.008;2024-03-02T10:46:10;95143.09;;;8.97;70.30
8253;BME280;61313;48.396;10.008;2024-03-02T10:48:39;95140.28;;;9.30;69.27
8253;BME280;61313;48.396;10.008;2024-03-02T10:51:06;95141.56;;;9.08;70.11
8253;BME280;61313;48.396;10.008;2024-03-02T10:53:32;95137.53;;;9.03;71.02
8253;BME280;61313;48.396;10.008;2024-03-02T10:55:58;95123.31;;;9.51;70.13
8253;BME280;61313;48.396;10.008;2024-03-02T10:58:31;95111.97;;;9.37;69.40
8253;BME280;61313;48.396;10.008;2024-03-02T11:01:02;95118.34;;;10.18;67.06
8253;BME280;61313;48.396;10.008;2024-03-02T11:03:33;95116.00;;;10.14;66.82
8253;BME280;61313;48.396;10.008;2024-03-02T11:06:00;95110.06;;;10.25;65.95
8253;BME280;61313;48.396;10.008;2024-03-02T11:08:28;95104.75;;;10.68;65.80
8253;BME280;61313;48.396;10.008;2024-03-02T11:10:58;95095.38;;;10.64;65.20
8253;BME280;61313;48.396;10.008;2024-03-02T11:13:31;95095.25;;;10.65;65.31
8253;BME280;61313;48.396;10.008;2024-03-02T11:16:06;95088.41;;;10.90;64.68
8253;BME280;61313;48.396;10.008;2024-03-02T11:18:36;95080.63;;;10.75;65.07
8253;BME280;61313;48.396;10.008;2024-03-02T11:21:02;95077.34;;;11.37;62.83
8253;BME280;61313;48.396;10.008;2024-03-02T11:23:32;95075.25;;;10.77;64.40
8253;BME280;61313;48.396;10.008;2024-03-02T11:26:20;95063.69;;;11.32;63.45
8253;BME280;61313;48.396;10.008;2024-03-02T11:28:47;95066.41;;;10.65;63.91
8253;BME280;61313;48.396;10.008;2024-03-02T11:31:12;95062.25;;;10.88;64.84
8253;BME280;61313;48.396;10.008;2024-03-02T11:33:38;95056.09;;;11.15;63.79
8253;BME280;61313;48.396;10.008;2024-03-02T11:36:06;95058.75;;;11.53;62.75
8253;BME280;61313;48.396;10.008;2024-03-02T11:38:33;95051.75;;;12.03;60.88
8253;BME280;61313;48.396;10.008;2024-03-02T11:41:05;95046.88;;;11.35;62.22
8253;BME280;61313;48.396;10.008;2024-03-02T11:43:32;95045.16;;;11.59;62.39
8253;BME280;61313;48.396;10.008;2024-03-02T11:46:03;95042.41;;;11.74;61.41
8253;BME280;61313;48.396;10.008;2024-03-02T11:48:32;95030.66;;;11.66;61.71
8253;BME280;61313;48.396;10.008;2024-03-02T11:51:00;95026.13;;;12.31;60.35
8253;BME280;61313;48.396;10.008;2024-03-02T11:53:27;95031.69;;;11.90;60.46
8253;BME280;61313;48.396;10.008;2024-03-02T11:55:55;95021.84;;;12.41;58.55
8253;BME280;61313;48.396;10.008;2024-03-02T11:58:21;95017.75;;;12.37;57.99
8253;BME280;61313;48.396;10.008;2024-03-02T12:00:52;95002.97;;;12.71;57.42
8253;BME280;61313;48.396;10.008;2024-03-02T12:03:18;95000.22;;;12.84;57.29
8253;BME280;61313;48.396;10.008;2024-03-02T12:05:49;94993.66;;;12.79;57.99
8253;BME280;61313;48.396;10.008;2024-03-02T12:08:14;94988.34;;;12.67;59.08
8253;BME280;61313;48.396;10.008;2024-03-02T12:10:40;94980.19;;;12.35;59.61
8253;BME280;61313;48.396;10.008;2024-03-02T12:13:06;94986.75;;;12.29;60.47
8253;BME280;61313;48.396;10.008;2024-03-02T12:15:37;94987.41;;;11.96;62.01
8253;BME280;61313;48.396;10.008;2024-03-02T12:18:03;94983.91;;;11.59;63.64
8253;BME280;61313;48.396;10.008;2024-03-02T12:20:31;94984.97;;;12.06;62.52
8253;BME280;61313;48.396;10.008;2024-03-02T12:23:02;94971.41;;;12.23;62.50
8253;BME280;61313;48.396;10.008;2024-03-02T12:25:27;94976.72;;;12.35;61.93
8253;BME280;61313;48.396;10.008;2024-03-02T12:27:55;94966.97;;;12.13;62.76
8253;BME280;61313;48.396;10.008;2024-03-02T12:30:21;94975.16;;;12.32;61.84
8253;BME280;61313;48.396;10.008;2024-03-02T12:32:47;94956.03;;;13.34;73.95
8253;BME280;61313;48.396;10.008;2024-03-02T12:35:14;94954.97;;;13.71;66.76
8253;BME280;61313;48.396;10.008;2024-03-02T12:37:46;94954.50;;;13.66;59.86
8253;BME280;61313;48.396;10.008;2024-03-02T12:40:14;94948.59;;;14.60;62.20
8253;BME280;61313;48.396;10.008;2024-03-02T12:42:40;94949.28;;;15.04;59.13
8253;BME280;61313;48.396;10.008;2024-03-02T12:45:07;94943.66;;;14.88;56.20
8253;BME280;61313;48.396;10.008;2024-03-02T12:47:34;94948.03;;;13.47;58.17
8253;BME280;61313;48.396;10.008;2024-03-02T12:49:59;94940.16;;;14.02;62.06
8253;BME280;61313;48.396;10.008;2024-03-02T12:52:25;94941.19;;;14.22;60.66
8253;BME280;61313;48.396;10.008;2024-03-02T12:54:51;94932.16;;;15.20;57.82
8253;BME280;61313;48.396;10.008;2024-03-02T12:57:18;94921.22;;;14.61;56.19
8253;BME280;61313;48.396;10.008;2024-03-02T12:59:47;94926.59;;;13.41;58.88
8253;BME280;61313;48.396;10.008;2024-03-02T13:02:19;94921.44;;;13.28;59.72
8253;BME280;61313;48.396;10.008;2024-03-02T13:04:52;94918.00;;;14.26;58.99
8253;BME280;61313;48.396;10.008;2024-03-02T13:07:18;94918.09;;;14.35;57.36
8253;BME280;61313;48.396;10.008;2024-03-02T13:09:45;94916.41;;;13.47;59.41
8253;BME280;61313;48.396;10.008;2024-03-02T13:12:11;94915.25;;;13.84;58.19